Time;durP1;ratioP1;P1;durP2;ratioP2;P2;SDS_P1;SDS_P2;PMS_P1;PMS_P2;Temp;Humidity;BMP_temperature;BMP_pressure;BME280_temperature;BME280_humidity;BME280_pressure;Samples;Min_cycle;Max_cycle;Signal;HPM_P1;HPM_P2
2023/10/31 00:00:42;;;;;;;5.05;1.67;;;;;;;;;;5042211;28;20049;-70
2023/10/31 00:03:08;;;;;;;3.55;1.50;;;11.00;99.90;;;;;;5062306;28;20435;-70
2023/10/31 00:05:34;;;;;;;1.75;1.15;;;;;;;;;;5058607;28;20045;-70
2023/10/31 00:08:00;;;;;;;2.55;1.02;;;;;;;;;;5063949;28;20148;-70
2023/10/31 00:10:26;;;;;;;4.03;1.02;;;;;;;;;;5036972;28;20041;-70
2023/10/31 00:12:52;;;;;;;2.67;1.05;;;;;;;;;;5039091;28;20051;-70
2023/10/31 00:15:18;;;;;;;3.97;1.40;;;;;;;;;;5071132;28;20043;-71
2023/10/31 00:17:44;;;;;;;8.60;1.38;;;;;;;;;;5045957;28;21057;-70
2023/10/31 00:20:10;;;;;;;6.80;1.10;;;10.90;99.90;;;;;;5057940;28;20146;-70
2023/10/31 00:22:36;;;;;;;2.00;0.88;;;;;;;;;;5041757;28;20039;-70
2023/10/31 00:25:02;;;;;;;4.47;1.10;;;;;;;;;;5053938;28;20055;-71
2023/10/31 00:27:28;;;;;;;3.15;1.00;;;;;;;;;;5043184;28;20040;-70
2023/10/31 00:29:53;;;;;;;4.10;1.08;;;10.90;99.90;;;;;;5051669;28;20415;-70
2023/10/31 00:32:19;;;;;;;2.22;0.80;;;10.90;99.90;;;;;;5042427;28;20094;-70
2023/10/31 00:34:45;;;;;;;3.58;1.20;;;;;;;;;;5048923;28;20044;-70
2023/10/31 00:37:11;;;;;;;5.28;1.10;;;;;;;;;;5039674;28;20141;-70
2023/10/31 00:39:37;;;;;;;2.35;0.90;;;;;;;;;;5058877;28;20479;-70
2023/10/31 00:42:03;;;;;;;3.35;0.88;;;;;;;;;;5046130;28;20071;-71
2023/10/31 00:44:29;;;;;;;2.28;1.17;;;;;;;;;;5034266;28;20449;-70
2023/10/31 00:46:55;;;;;;;3.55;1.00;;;;;;;;;;5042016;28;20044;-70
2023/10/31 00:49:21;;;;;;;5.22;1.20;;;10.80;99.90;;;;;;5041122;28;20052;-70
2023/10/31 00:51:47;;;;;;;2.35;1.30;;;;;;;;;;5048069;28;20047;-70
2023/10/31 00:54:14;;;;;;;3.03;1.25;;;;;;;;;;5037224;28;20052;-70
2023/10/31 00:56:40;;;;;;;3.00;0.82;;;;;;;;;;5061037;28;20044;-70
2023/10/31 00:59:06;;;;;;;3.70;1.50;;;;;;;;;;5038361;28;20034;-70
2023/10/31 01:01:31;;;;;;;2.35;1.17;;;10.70;99.90;;;;;;5038108;28;20044;-70
2023/10/31 01:03:57;;;;;;;4.55;1.63;;;;;;;;;;5026938;28;20128;-71
2023/10/31 01:06:23;;;;;;;2.55;1.20;;;;;;;;;;5040260;28;20064;-70
2023/10/31 01:08:49;;;;;;;2.55;1.50;;;;;;;;;;5045214;28;20496;-71
2023/10/31 01:11:15;;;;;;;4.43;1.45;;;10.70;99.90;;;;;;5039896;28;20044;-70
2023/10/31 01:13:41;;;;;;;4.85;2.20;;;;;;;;;;5040949;28;20468;-70
2023/10/31 01:16:07;;;;;;;3.00;1.60;;;10.90;99.90;;;;;;5060064;28;20124;-70
2023/10/31 01:18:33;;;;;;;3.55;1.77;;;;;;;;;;5045634;28;20044;-70
2023/10/31 01:20:59;;;;;;;3.75;1.50;;;;;;;;;;5041217;28;20048;-70
2023/10/31 01:23:25;;;;;;;4.10;2.10;;;10.90;99.90;;;;;;5042990;28;20041;-70
2023/10/31 01:25:51;;;;;;;5.07;1.65;;;;;;;;;;5060648;28;20117;-70
2023/10/31 01:28:16;;;;;;;4.20;1.92;;;10.90;99.90;;;;;;5061934;28;20052;-70
2023/10/31 01:30:42;;;;;;;4.93;1.45;;;10.80;99.90;;;;;;5038438;28;20036;-70
2023/10/31 01:33:08;;;;;;;5.05;1.60;;;;;;;;;;5044313;28;20041;-70
2023/10/31 01:35:34;;;;;;;10.70;2.13;;;;;;;;;;5058933;28;20048;-70
2023/10/31 01:38:00;;;;;;;4.78;1.50;;;;;;;;;;5060841;28;20124;-70
2023/10/31 01:40:26;;;;;;;4.40;1.42;;;;;;;;;;5036351;28;20128;-70
2023/10/31 01:42:51;;;;;;;2.05;0.90;;;10.80;99.90;;;;;;5059143;28;20083;-70
2023/10/31 01:45:17;;;;;;;3.13;1.20;;;10.70;99.90;;;;;;5037190;28;20055;-70
2023/10/31 01:47:45;;;;;;;3.65;1.00;;;;;;;;;;5037627;28;20432;-71
2023/10/31 01:50:10;;;;;;;8.88;0.82;;;10.80;99.90;;;;;;5047657;28;20052;-70
2023/10/31 01:52:37;;;;;;;4.88;1.20;;;10.80;99.90;;;;;;5043060;28;20105;-70
2023/10/31 01:55:04;;;;;;;6.00;1.42;;;;;;;;;;5046390;28;20099;-70
2023/10/31 01:57:30;;;;;;;4.20;1.20;;;;;;;;;;5023500;28;20484;-71
2023/10/31 01:59:56;;;;;;;3.63;1.20;;;10.80;99.90;;;;;;5042414;28;20556;-70
2023/10/31 02:02:24;;;;;;;4.88;1.20;;;;;;;;;;5043848;28;20182;-70
2023/10/31 02:04:50;;;;;;;3.20;1.27;;;;;;;;;;5044162;28;20040;-70
2023/10/31 02:07:16;;;;;;;4.32;1.80;;;10.70;99.90;;;;;;5040965;28;20073;-70
2023/10/31 02:09:42;;;;;;;5.50;1.90;;;;;;;;;;5045771;28;20124;-71
2023/10/31 02:12:07;;;;;;;2.97;1.63;;;10.60;99.90;;;;;;5036203;28;20569;-70
2023/10/31 02:14:33;;;;;;;5.43;2.50;;;;;;;;;;5042711;28;20041;-70
2023/10/31 02:16:59;;;;;;;3.70;1.90;;;;;;;;;;5058511;28;20480;-70
2023/10/31 02:19:25;;;;;;;3.88;2.33;;;;;;;;;;5059111;28;20047;-70
2023/10/31 02:21:51;;;;;;;5.55;2.13;;;;;;;;;;5041946;28;20036;-70
2023/10/31 02:24:17;;;;;;;4.00;2.42;;;;;;;;;;5039023;28;20106;-70
2023/10/31 02:26:43;;;;;;;2.60;2.05;;;11.00;99.90;;;;;;5037934;28;20059;-70
2023/10/31 02:29:09;;;;;;;3.40;2.10;;;;;;;;;;5064765;28;20044;-71
2023/10/31 02:31:35;;;;;;;6.95;2.63;;;;;;;;;;5044838;28;20128;-70
2023/10/31 02:34:01;;;;;;;6.53;2.83;;;;;;;;;;5046227;28;20048;-71
2023/10/31 02:36:27;;;;;;;8.20;2.63;;;;;;;;;;5035925;28;20045;-71
2023/10/31 02:38:53;;;;;;;4.43;2.53;;;;;;;;;;5045290;28;20049;-70
2023/10/31 02:41:19;;;;;;;8.38;2.60;;;;;;;;;;5065877;28;20591;-70
2023/10/31 02:43:45;;;;;;;7.00;2.97;;;;;;;;;;5048006;28;20122;-70
2023/10/31 02:46:13;;;;;;;7.55;2.88;;;;;;;;;;5048612;28;20056;-70
2023/10/31 02:48:39;;;;;;;3.35;2.38;;;;;;;;;;5055879;28;20080;-70
2023/10/31 02:51:06;;;;;;;5.63;2.63;;;;;;;;;;5042173;28;20070;-70
2023/10/31 02:53:31;;;;;;;6.38;2.85;;;10.70;99.90;;;;;;5037698;28;20472;-70
2023/10/31 02:55:57;;;;;;;9.63;3.97;;;10.60;99.90;;;;;;5067366;28;20040;-70
2023/10/31 02:58:23;;;;;;;5.47;3.13;;;;;;;;;;5045439;28;20044;-70
2023/10/31 03:00:49;;;;;;;5.60;2.60;;;10.70;99.90;;;;;;5052055;28;20163;-70
2023/10/31 03:03:15;;;;;;;5.18;2.85;;;;;;;;;;5046828;28;20048;-70
2023/10/31 03:05:42;;;;;;;7.72;2.53;;;;;;;;;;5017597;28;20059;-71
2023/10/31 03:08:10;;;;;;;3.97;2.25;;;10.70;99.90;;;;;;5043784;28;20041;-70
2023/10/31 03:10:36;;;;;;;5.32;2.58;;;;;;;;;;5057734;28;20759;-70
2023/10/31 03:13:02;;;;;;;3.25;2.22;;;;;;;;;;5028202;28;20059;-70
2023/10/31 03:15:28;;;;;;;8.27;2.83;;;10.60;99.90;;;;;;5068003;28;20549;-70
2023/10/31 03:17:54;;;;;;;5.88;2.28;;;;;;;;;;5043526;28;20072;-70
2023/10/31 03:20:20;;;;;;;9.07;2.45;;;;;;;;;;5042001;28;20040;-70
2023/10/31 03:22:46;;;;;;;14.35;2.70;;;;;;;;;;5045143;28;20458;-71
2023/10/31 03:25:12;;;;;;;4.32;2.70;;;;;;;;;;5043712;28;20044;-70
2023/10/31 03:27:37;;;;;;;4.43;2.90;;;10.80;99.90;;;;;;5047021;28;20087;-71
2023/10/31 03:30:03;;;;;;;8.05;3.15;;;10.70;99.90;;;;;;5070297;28;20033;-70
2023/10/31 03:32:30;;;;;;;7.72;3.20;;;;;;;;;;5045310;28;20036;-70
2023/10/31 03:34:56;;;;;;;7.25;3.42;;;;;;;;;;5067216;28;20047;-70
2023/10/31 03:37:22;;;;;;;6.63;3.35;;;;;;;;;;5059636;28;20477;-71
2023/10/31 03:39:47;;;;;;;5.10;2.30;;;10.90;99.90;;;;;;5038879;28;20492;-70
2023/10/31 03:42:13;;;;;;;7.90;2.67;;;10.90;99.90;;;;;;5039759;28;20048;-70
2023/10/31 03:44:39;;;;;;;5.00;2.60;;;;;;;;;;5045565;28;20040;-70
2023/10/31 03:47:05;;;;;;;9.63;2.78;;;10.70;99.90;;;;;;5059741;28;20075;-70
2023/10/31 03:49:31;;;;;;;3.53;2.33;;;;;;;;;;5039775;28;20200;-71
2023/10/31 03:51:57;;;;;;;3.20;2.38;;;;;;;;;;5045029;28;20098;-70
2023/10/31 03:54:23;;;;;;;4.32;2.00;;;;;;;;;;5071303;28;20052;-70
2023/10/31 03:56:48;;;;;;;5.00;2.03;;;10.90;99.90;;;;;;5044296;28;20553;-70
2023/10/31 03:59:14;;;;;;;6.22;1.90;;;;;;;;;;5058533;28;20040;-71
2023/10/31 04:01:40;;;;;;;4.63;1.75;;;;;;;;;;5041491;28;20093;-70
2023/10/31 04:04:06;;;;;;;5.15;1.25;;;;;;;;;;5042343;28;20123;-70
2023/10/31 04:06:32;;;;;;;6.97;1.75;;;;;;;;;;5043003;28;20127;-70
2023/10/31 04:08:58;;;;;;;3.55;1.55;;;;;;;;;;5057470;28;20430;-70
2023/10/31 04:11:24;;;;;;;2.30;1.40;;;;;;;;;;5043696;28;20048;-70
2023/10/31 04:13:50;;;;;;;3.65;1.45;;;10.90;99.90;;;;;;5044665;28;20049;-70
2023/10/31 04:16:16;;;;;;;6.43;1.58;;;;;;;;;;5044258;28;20086;-70
2023/10/31 04:18:42;;;;;;;3.50;1.33;;;;;;;;;;5043488;28;20079;-70
2023/10/31 04:21:08;;;;;;;3.83;1.23;;;;;;;;;;5052124;28;20036;-70
2023/10/31 04:23:34;;;;;;;4.30;1.27;;;10.80;99.90;;;;;;5050836;28;20037;-70
2023/10/31 04:26:00;;;;;;;3.53;1.33;;;;;;;;;;5054186;28;20115;-70
2023/10/31 04:28:25;;;;;;;5.90;1.58;;;10.80;99.90;;;;;;5046378;28;20382;-70
2023/10/31 04:30:51;;;;;;;3.38;1.50;;;;;;;;;;5061558;28;20045;-70
2023/10/31 04:33:17;;;;;;;4.45;1.40;;;;;;;;;;5041869;28;20049;-70
2023/10/31 04:35:43;;;;;;;3.63;1.55;;;;;;;;;;5041189;28;20415;-70
2023/10/31 04:38:09;;;;;;;5.25;1.50;;;10.60;99.90;;;;;;5061718;28;20041;-70
2023/10/31 04:40:34;;;;;;;1.80;1.05;;;10.70;99.90;;;;;;5047505;28;20842;-70
2023/10/31 04:43:00;;;;;;;2.47;1.33;;;;;;;;;;5045468;28;20432;-70
2023/10/31 04:45:26;;;;;;;4.10;1.40;;;10.60;99.90;;;;;;5061924;28;20080;-70
2023/10/31 04:47:52;;;;;;;2.38;1.00;;;;;;;;;;5063154;28;20492;-71
2023/10/31 04:50:18;;;;;;;4.18;1.42;;;;;;;;;;5048161;28;20107;-70
2023/10/31 04:52:43;;;;;;;4.13;1.50;;;;;;;;;;5040258;28;20052;-70
2023/10/31 04:55:09;;;;;;;3.15;1.35;;;10.70;99.90;;;;;;5043401;28;20569;-70
2023/10/31 04:57:35;;;;;;;4.70;1.40;;;;;;;;;;5043346;28;20036;-70
2023/10/31 05:00:01;;;;;;;4.32;1.20;;;10.60;99.90;;;;;;5046004;28;20048;-70
2023/10/31 05:02:28;;;;;;;2.70;1.08;;;;;;;;;;5040197;28;20044;-70
2023/10/31 05:04:54;;;;;;;4.68;1.20;;;;;;;;;;5043910;28;20052;-70
2023/10/31 05:07:20;;;;;;;4.28;1.40;;;10.70;99.90;;;;;;5048494;28;20400;-70
2023/10/31 05:09:46;;;;;;;2.53;1.05;;;;;;;;;;5064349;28;20032;-70
2023/10/31 05:12:12;;;;;;;1.65;0.82;;;;;;;;;;5044114;28;20047;-70
2023/10/31 05:14:38;;;;;;;2.45;1.08;;;;;;;;;;5045346;28;20654;-70
2023/10/31 05:17:04;;;;;;;5.10;1.38;;;;;;;;;;5041111;28;20091;-70
2023/10/31 05:19:30;;;;;;;5.15;1.02;;;10.50;99.90;;;;;;5040323;28;20526;-70
2023/10/31 05:21:56;;;;;;;3.53;1.00;;;;;;;;;;5042988;28;20049;-70
2023/10/31 05:24:22;;;;;;;7.43;1.13;;;;;;;;;;5045446;28;20048;-70
2023/10/31 05:26:48;;;;;;;1.85;0.80;;;;;;;;;;5039724;28;20451;-70
2023/10/31 05:29:14;;;;;;;3.42;1.00;;;;;;;;;;5045653;28;20498;-70
2023/10/31 05:31:41;;;;;;;6.88;1.88;;;;;;;;;;5045243;28;20052;-70
2023/10/31 05:34:07;;;;;;;2.67;1.10;;;;;;;;;;5061143;28;20552;-70
2023/10/31 05:36:33;;;;;;;2.42;0.90;;;;;;;;;;5064721;28;20097;-70
2023/10/31 05:38:59;;;;;;;3.40;1.08;;;;;;;;;;5061232;28;20563;-70
2023/10/31 05:41:25;;;;;;;2.58;1.10;;;;;;;;;;5042214;28;20051;-70
2023/10/31 05:43:50;;;;;;;4.30;1.30;;;10.50;99.90;;;;;;5043485;28;20048;-70
2023/10/31 05:46:16;;;;;;;4.05;1.15;;;;;;;;;;5034730;28;20568;-70
2023/10/31 05:48:45;;;;;;;5.32;1.45;;;;;;;;;;5036478;28;20068;-70
2023/10/31 05:51:12;;;;;;;4.15;1.40;;;;;;;;;;5037529;28;20190;-70
2023/10/31 05:53:38;;;;;;;2.13;1.33;;;;;;;;;;5037769;28;20049;-71
2023/10/31 05:56:07;;;;;;;1.95;1.13;;;;;;;;;;5067483;28;20035;-71
2023/10/31 05:58:32;;;;;;;2.30;1.40;;;10.60;99.90;;;;;;5037155;28;20052;-70
2023/10/31 06:00:58;;;;;;;2.35;1.40;;;;;;;;;;5047002;28;20040;-70
2023/10/31 06:03:24;;;;;;;3.92;1.40;;;10.40;99.90;;;;;;5050252;28;20191;-70
2023/10/31 06:05:50;;;;;;;2.90;1.40;;;;;;;;;;5065112;28;20036;-70
2023/10/31 06:08:16;;;;;;;4.20;1.30;;;;;;;;;;5038016;28;20049;-70
2023/10/31 06:10:42;;;;;;;4.70;1.30;;;;;;;;;;5044283;28;20062;-70
2023/10/31 06:13:07;;;;;;;3.03;1.23;;;10.60;99.90;;;;;;5052106;28;20106;-70
2023/10/31 06:15:33;;;;;;;4.68;1.38;;;;;;;;;;5037804;28;20056;-71
2023/10/31 06:17:59;;;;;;;3.33;1.40;;;;;;;;;;5046389;28;20498;-70
2023/10/31 06:20:25;;;;;;;3.20;1.10;;;;;;;;;;5040373;28;20098;-70
2023/10/31 06:22:51;;;;;;;7.20;1.33;;;;;;;;;;5044761;28;20036;-70
2023/10/31 06:25:17;;;;;;;4.22;1.58;;;;;;;;;;5050195;28;20528;-70
2023/10/31 06:27:43;;;;;;;5.07;1.50;;;10.40;99.90;;;;;;5044575;28;20155;-70
2023/10/31 06:30:09;;;;;;;8.25;2.22;;;;;;;;;;5045104;28;20455;-71
2023/10/31 06:32:34;;;;;;;6.03;2.00;;;10.60;99.90;;;;;;5043235;28;20747;-70
2023/10/31 06:35:00;;;;;;;3.78;2.10;;;;;;;;;;5055496;28;20146;-70
2023/10/31 06:37:26;;;;;;;6.10;1.95;;;10.70;99.90;;;;;;5033845;28;20041;-70
2023/10/31 06:39:52;;;;;;;7.28;2.35;;;;;;;;;;5044091;28;20036;-70
2023/10/31 06:42:18;;;;;;;3.47;2.08;;;;;;;;;;5039218;28;20091;-70
2023/10/31 06:44:44;;;;;;;5.10;2.50;;;;;;;;;;5046459;28;20451;-71
2023/10/31 06:47:10;;;;;;;5.55;2.80;;;;;;;;;;5054391;28;20480;-70
2023/10/31 06:49:36;;;;;;;6.93;2.70;;;;;;;;;;5041254;28;20056;-70
2023/10/31 06:52:03;;;;;;;4.47;2.53;;;;;;;;;;5037646;28;20105;-70
2023/10/31 06:54:28;;;;;;;12.40;3.28;;;10.70;99.90;;;;;;5037655;28;20053;-70
2023/10/31 06:56:54;;;;;;;6.15;2.80;;;;;;;;;;5042903;28;20083;-71
2023/10/31 06:59:20;;;;;;;5.70;2.60;;;10.80;99.90;;;;;;5042979;28;20049;-70
2023/10/31 07:01:46;;;;;;;5.45;2.30;;;;;;;;;;5045668;28;20047;-70
2023/10/31 07:04:13;;;;;;;7.22;2.30;;;;;;;;;;5042392;28;20052;-70
2023/10/31 07:06:39;;;;;;;6.15;2.55;;;;;;;;;;5065351;28;20337;-71
2023/10/31 07:09:05;;;;;;;6.82;2.42;;;;;;;;;;5043458;28;20044;-69
2023/10/31 07:11:33;;;;;;;4.47;2.58;;;;;;;;;;5054543;28;20065;-72
2023/10/31 07:14:02;;;;;;;4.32;2.70;;;;;;;;;;5044172;28;20376;-70
2023/10/31 07:16:28;;;;;;;7.50;2.92;;;;;;;;;;5061782;28;20444;-69
2023/10/31 07:18:53;;;;;;;7.88;2.80;;;10.80;99.90;;;;;;5044072;28;20095;-69
2023/10/31 07:21:20;;;;;;;5.68;2.60;;;;;;;;;;5038397;28;20634;-69
2023/10/31 07:23:46;;;;;;;7.10;2.30;;;;;;;;;;5065218;28;20076;-69
2023/10/31 07:26:12;;;;;;;5.68;2.28;;;;;;;;;;5063388;28;20041;-70
2023/10/31 07:28:38;;;;;;;3.45;2.28;;;;;;;;;;5043833;28;20398;-69
2023/10/31 07:31:04;;;;;;;5.60;2.00;;;10.80;99.90;;;;;;5042379;28;20171;-69
2023/10/31 07:33:30;;;;;;;5.18;2.40;;;;;;;;;;5045970;28;20072;-71
2023/10/31 07:35:56;;;;;;;3.83;1.90;;;10.90;99.90;;;;;;5040520;28;20123;-69
2023/10/31 07:38:22;;;;;;;6.35;1.92;;;;;;;;;;5039987;28;20598;-69
2023/10/31 07:40:48;;;;;;;6.40;2.28;;;10.90;99.90;;;;;;5044360;28;20040;-69
2023/10/31 07:43:14;;;;;;;5.00;2.33;;;;;;;;;;5045265;28;20048;-70
2023/10/31 07:45:39;;;;;;;3.72;1.88;;;11.10;99.90;;;;;;5031995;28;20041;-69
2023/10/31 07:48:05;;;;;;;6.57;2.03;;;;;;;;;;5028319;28;1039833;-73
2023/10/31 07:50:31;;;;;;;7.10;1.77;;;11.00;99.90;;;;;;5044302;28;20093;-68
2023/10/31 07:52:56;;;;;;;6.25;1.58;;;11.20;99.90;;;;;;5072942;28;20044;-68
2023/10/31 07:55:22;;;;;;;5.70;2.05;;;;;;;;;;5056057;28;20052;-70
2023/10/31 07:57:48;;;;;;;7.82;1.65;;;11.10;99.90;;;;;;5044260;28;20048;-68
2023/10/31 08:00:14;;;;;;;3.72;1.23;;;;;;;;;;5055846;28;20178;-70
2023/10/31 08:02:40;;;;;;;4.75;1.45;;;;;;;;;;5041207;28;20478;-68
2023/10/31 08:05:07;;;;;;;8.20;1.15;;;;;;;;;;5040920;28;20051;-71
2023/10/31 08:07:33;;;;;;;3.35;1.13;;;;;;;;;;5046325;28;20071;-70
2023/10/31 08:09:59;;;;;;;3.22;1.23;;;;;;;;;;5045671;28;20048;-71
2023/10/31 08:12:25;;;;;;;5.68;1.20;;;11.20;99.90;;;;;;5045997;28;20431;-70
2023/10/31 08:14:51;;;;;;;4.88;1.10;;;;;;;;;;5039965;28;20049;-72
2023/10/31 08:17:16;;;;;;;3.88;0.95;;;11.20;99.90;;;;;;5059818;28;20063;-70
2023/10/31 08:19:42;;;;;;;3.70;1.10;;;;;;;;;;5043548;28;20078;-73
2023/10/31 08:22:08;;;;;;;4.80;0.90;;;;;;;;;;5042811;28;20408;-73
2023/10/31 08:24:36;;;;;;;1.70;0.88;;;;;;;;;;5045102;28;20598;-70
2023/10/31 08:27:02;;;;;;;2.97;1.08;;;11.30;99.90;;;;;;5058610;28;20080;-70
2023/10/31 08:29:28;;;;;;;1.52;0.93;;;;;;;;;;5054491;28;20045;-71
2023/10/31 08:31:54;;;;;;;4.68;1.15;;;11.40;99.90;;;;;;5037115;28;20119;-71
2023/10/31 08:34:20;;;;;;;5.63;1.15;;;;;;;;;;5035918;28;20049;-71
2023/10/31 08:36:46;;;;;;;2.40;0.90;;;;;;;;;;5055579;28;20064;-71
2023/10/31 08:39:12;;;;;;;11.32;1.33;;;;;;;;;;5041928;28;20175;-71
2023/10/31 08:41:49;;;;;;;5.43;1.45;;;;;;;;;;5042065;28;20063;-71
2023/10/31 08:44:15;;;;;;;4.53;1.35;;;;;;;;;;5063250;28;20048;-71
2023/10/31 08:46:41;;;;;;;2.88;1.10;;;;;;;;;;5040957;28;20548;-70
2023/10/31 08:49:07;;;;;;;4.20;0.70;;;;;;;;;;5038545;28;20187;-72
2023/10/31 08:51:33;;;;;;;3.75;0.73;;;;;;;;;;5037987;28;20087;-71
2023/10/31 08:53:59;;;;;;;6.28;1.17;;;;;;;;;;5035808;28;20056;-72
2023/10/31 08:56:27;;;;;;;4.15;0.70;;;;;;;;;;5040976;28;20048;-72
2023/10/31 08:58:53;;;;;;;3.05;0.77;;;13.50;99.90;;;;;;5063443;28;20040;-71
2023/10/31 09:01:19;;;;;;;2.63;0.65;;;13.40;99.90;;;;;;5062964;28;20068;-72
2023/10/31 09:03:45;;;;;;;2.65;0.88;;;13.50;99.90;;;;;;5051363;28;20044;-71
2023/10/31 09:06:11;;;;;;;3.85;1.00;;;;;;;;;;5063781;28;20051;-71
2023/10/31 09:08:38;;;;;;;3.22;1.05;;;;;;;;;;5030930;28;20119;-72
2023/10/31 09:11:04;;;;;;;2.38;0.50;;;13.50;99.90;;;;;;5043110;28;20467;-71
2023/10/31 09:13:30;;;;;;;6.75;0.80;;;13.30;99.90;;;;;;5064208;28;20040;-71
2023/10/31 09:15:56;;;;;;;3.65;1.00;;;;;;;;;;5045556;28;20466;-72
2023/10/31 09:18:22;;;;;;;4.38;0.90;;;;;;;;;;5063798;28;20036;-72
2023/10/31 09:20:48;;;;;;;4.40;0.60;;;13.30;99.90;;;;;;5044063;28;20045;-71
2023/10/31 09:23:14;;;;;;;3.92;0.85;;;;;;;;;;5066995;28;20041;-71
2023/10/31 09:25:40;;;;;;;2.10;0.43;;;12.80;99.90;;;;;;5041765;28;20103;-70
2023/10/31 09:28:06;;;;;;;0.70;0.50;;;;;;;;;;5061583;28;20070;-71
2023/10/31 09:30:32;;;;;;;1.40;0.40;;;;;;;;;;5042441;28;20480;-70
2023/10/31 09:32:58;;;;;;;0.52;0.43;;;;;;;;;;5066568;28;20043;-71
2023/10/31 09:35:26;;;;;;;1.75;0.50;;;;;;;;;;5045662;28;20056;-71
2023/10/31 09:37:52;;;;;;;1.00;0.30;;;;;;;;;;5046037;28;20052;-71
2023/10/31 09:40:18;;;;;;;1.17;0.57;;;;;;;;;;5044896;28;20075;-72
2023/10/31 09:42:47;;;;;;;0.95;0.50;;;12.40;99.90;;;;;;5023007;28;20037;-69
2023/10/31 09:45:13;;;;;;;1.58;0.40;;;12.40;99.90;;;;;;5042338;28;20079;-70
2023/10/31 09:47:40;;;;;;;1.15;0.50;;;;;;;;;;5062454;28;20150;-69
2023/10/31 09:50:08;;;;;;;1.25;0.60;;;12.20;99.90;;;;;;5044432;28;20187;-69
2023/10/31 09:52:34;;;;;;;2.10;0.50;;;;;;;;;;5042912;28;20048;-69
2023/10/31 09:55:00;;;;;;;2.50;0.55;;;;;;;;;;5037676;28;20122;-69
2023/10/31 09:57:26;;;;;;;0.90;0.45;;;12.20;99.90;;;;;;5043623;28;20070;-70
2023/10/31 09:59:52;;;;;;;0.40;0.40;;;;;;;;;;5034442;28;20044;-69
2023/10/31 10:02:18;;;;;;;1.27;0.60;;;11.90;99.90;;;;;;5060401;28;20042;-70
2023/10/31 10:04:43;;;;;;;4.88;0.60;;;12.10;99.90;;;;;;5041051;28;20044;-69
2023/10/31 10:07:16;;;;;;;1.95;0.40;;;11.90;99.90;;;;;;5057520;28;20044;-69
2023/10/31 10:09:42;;;;;;;0.63;0.50;;;;;;;;;;5065892;28;20035;-70
2023/10/31 10:12:11;;;;;;;0.50;0.50;;;12.00;99.90;;;;;;5053263;28;20041;-72
2023/10/31 10:14:38;;;;;;;1.15;0.43;;;12.00;99.90;;;;;;5047035;28;20049;-69
2023/10/31 10:17:19;;;;;;;1.08;0.60;;;11.90;99.90;;;;;;5050545;28;20037;-69
2023/10/31 10:19:45;;;;;;;0.68;0.43;;;;;;;;;;5046412;28;20036;-69
2023/10/31 10:22:12;;;;;;;2.22;0.70;;;;;;;;;;5040278;28;20049;-71
2023/10/31 10:24:42;;;;;;;5.05;0.60;;;;;;;;;;5068828;28;20044;-71
2023/10/31 10:27:08;;;;;;;0.68;0.50;;;;;;;;;;5037834;28;20052;-69
2023/10/31 10:29:35;;;;;;;1.85;0.77;;;11.80;99.90;;;;;;5045858;28;20040;-70
2023/10/31 10:32:00;;;;;;;2.63;0.75;;;;;;;;;;5043375;28;20086;-69
2023/10/31 10:34:27;;;;;;;1.67;0.70;;;;;;;;;;5046614;28;20463;-71
2023/10/31 10:36:54;;;;;;;2.35;0.50;;;;;;;;;;5045236;28;20119;-70
2023/10/31 10:39:23;;;;;;;1.73;0.50;;;;;;;;;;5060678;28;20555;-69
2023/10/31 10:41:58;;;;;;;2.72;0.60;;;;;;;;;;5041746;28;20041;-69
2023/10/31 10:44:34;;;;;;;0.40;0.40;;;;;;;;;;5040083;28;20843;-70
2023/10/31 10:47:05;;;;;;;1.30;0.60;;;11.90;99.90;;;;;;5042834;28;20045;-69
2023/10/31 10:49:35;;;;;;;4.50;0.80;;;11.70;99.90;;;;;;5036133;28;20064;-69
2023/10/31 10:52:10;;;;;;;2.35;0.80;;;11.90;99.90;;;;;;5067855;28;20071;-69
2023/10/31 10:55:07;;;;;;;1.33;0.50;;;12.10;99.90;;;;;;5056065;28;20056;-70
2023/10/31 10:57:45;;;;;;;1.20;0.60;;;12.00;99.90;;;;;;5042329;28;20149;-69
2023/10/31 11:00:12;;;;;;;2.17;0.52;;;12.00;99.90;;;;;;5039254;28;20084;-71
2023/10/31 11:02:42;;;;;;;1.95;0.52;;;12.10;99.90;;;;;;5038128;28;20048;-69
2023/10/31 11:05:09;;;;;;;1.25;0.45;;;12.20;99.90;;;;;;5047505;28;20036;-70
2023/10/31 11:07:36;;;;;;;2.35;0.50;;;12.20;99.90;;;;;;5050388;28;20062;-70
2023/10/31 11:10:04;;;;;;;1.33;0.60;;;;;;;;;;5038725;28;20045;-72
2023/10/31 11:12:31;;;;;;;2.35;0.52;;;12.30;99.90;;;;;;5063779;28;20045;-69
2023/10/31 11:15:02;;;;;;;2.75;0.52;;;12.40;99.90;;;;;;5048941;28;20400;-69
2023/10/31 11:17:29;;;;;;;0.85;0.50;;;12.50;99.90;;;;;;5043772;28;20636;-69
2023/10/31 11:19:55;;;;;;;2.13;1.05;;;12.40;99.90;;;;;;5065610;28;20036;-70
2023/10/31 11:22:22;;;;;;;3.15;0.80;;;12.60;99.90;;;;;;5042539;28;20040;-70
2023/10/31 11:24:49;;;;;;;3.90;0.70;;;12.60;99.90;;;;;;5047064;28;20044;-69
2023/10/31 11:27:17;;;;;;;6.20;0.93;;;12.50;99.90;;;;;;5063142;28;20052;-69
2023/10/31 11:29:43;;;;;;;2.65;0.70;;;;;;;;;;5038787;28;20071;-72
2023/10/31 11:32:10;;;;;;;2.83;0.73;;;;;;;;;;5038848;28;20456;-71
2023/10/31 11:34:39;;;;;;;2.00;0.88;;;12.50;99.90;;;;;;5044045;28;20047;-70
2023/10/31 11:37:32;;;;;;;3.10;0.57;;;12.50;99.90;;;;;;5044520;28;20077;-75
2023/10/31 11:40:13;;;;;;;2.83;0.70;;;12.50;99.90;;;;;;5044985;28;20044;-70
2023/10/31 11:42:39;;;;;;;1.90;0.45;;;;;;;;;;5045309;28;20051;-71
2023/10/31 11:45:05;;;;;;;4.28;0.47;;;;;;;;;;5045240;28;20152;-71
2023/10/31 11:47:50;;;;;;;2.60;0.52;;;;;;;;;;5042568;28;20080;-70
2023/10/31 11:50:17;;;;;;;3.75;1.02;;;;;;;;;;5051362;28;20139;-71
2023/10/31 11:52:42;;;;;;;2.97;0.68;;;12.30;99.90;;;;;;5041191;28;20037;-70
2023/10/31 11:55:12;;;;;;;2.08;0.68;;;12.20;99.90;;;;;;5044372;28;20062;-72
2023/10/31 11:57:41;;;;;;;2.95;0.80;;;12.20;99.90;;;;;;5043349;28;20068;-72
2023/10/31 12:00:19;;;;;;;3.83;0.90;;;12.20;99.90;;;;;;5059334;28;20041;-70
2023/10/31 12:02:57;;;;;;;3.13;0.70;;;;;;;;;;5034838;28;20041;-73
2023/10/31 12:05:23;;;;;;;3.75;0.63;;;;;;;;;;5041598;28;20051;-71
2023/10/31 12:07:49;;;;;;;2.13;0.82;;;;;;;;;;5073236;28;20036;-72
2023/10/31 12:10:25;;;;;;;2.28;0.70;;;12.30;99.90;;;;;;5050091;28;20072;-70
2023/10/31 12:12:51;;;;;;;2.25;0.70;;;12.10;99.90;;;;;;5057066;28;20096;-72
2023/10/31 12:15:17;;;;;;;5.63;0.95;;;;;;;;;;5026085;28;20658;-70
2023/10/31 12:17:43;;;;;;;5.10;1.23;;;12.10;99.90;;;;;;5051494;28;20523;-70
2023/10/31 12:20:09;;;;;;;2.08;0.57;;;;;;;;;;5038394;28;20051;-71
2023/10/31 12:22:35;;;;;;;1.55;0.60;;;;;;;;;;5040817;28;20119;-71
2023/10/31 12:25:05;;;;;;;3.00;0.70;;;;;;;;;;5057873;28;20049;-72
2023/10/31 12:27:57;;;;;;;3.45;0.70;;;11.90;99.90;;;;;;5039603;28;20049;-73
2023/10/31 12:30:23;;;;;;;3.30;0.75;;;;;;;;;;5043743;28;20063;-71
2023/10/31 12:32:56;;;;;;;2.75;1.17;;;;;;;;;;5042157;28;20041;-70
2023/10/31 12:35:23;;;;;;;7.18;0.80;;;12.10;99.90;;;;;;5057296;28;20375;-70
2023/10/31 12:37:50;;;;;;;4.20;0.77;;;;;;;;;;5061407;28;20136;-70
2023/10/31 12:40:18;;;;;;;2.97;1.15;;;12.20;99.90;;;;;;5052286;28;20094;-74
2023/10/31 12:42:44;;;;;;;7.45;0.95;;;;;;;;;;5039540;28;20443;-70
2023/10/31 12:45:11;;;;;;;2.63;0.93;;;12.30;99.90;;;;;;5047815;28;20059;-72
2023/10/31 12:47:37;;;;;;;2.35;0.80;;;;;;;;;;5041617;28;20056;-71
2023/10/31 12:50:18;;;;;;;2.75;0.70;;;;;;;;;;5046613;28;20092;-71
2023/10/31 12:52:53;;;;;;;6.18;0.95;;;;;;;;;;5060907;28;20048;-72
2023/10/31 12:55:20;;;;;;;2.08;0.60;;;;;;;;;;5040997;28;20044;-70
2023/10/31 12:57:47;;;;;;;2.45;0.93;;;;;;;;;;5048207;28;20050;-74
2023/10/31 13:00:24;;;;;;;2.15;0.70;;;12.10;99.90;;;;;;5037372;28;20044;-71
2023/10/31 13:02:50;;;;;;;0.95;0.60;;;12.20;99.90;;;;;;5037208;28;20041;-70
2023/10/31 13:05:16;;;;;;;2.92;0.68;;;;;;;;;;5042498;28;20090;-71
2023/10/31 13:07:49;;;;;;;2.50;0.60;;;12.00;99.90;;;;;;5043174;28;20040;-72
2023/10/31 13:10:16;;;;;;;3.78;0.70;;;;;;;;;;5038285;28;20053;-72
2023/10/31 13:12:48;;;;;;;2.58;0.90;;;12.00;99.90;;;;;;5067840;28;20127;-73
2023/10/31 13:15:21;;;;;;;4.65;0.80;;;12.10;99.90;;;;;;5050165;28;20452;-71
2023/10/31 13:17:47;;;;;;;0.95;0.60;;;;;;;;;;5042439;28;20048;-71
2023/10/31 13:20:15;;;;;;;3.67;0.93;;;12.10;99.90;;;;;;5043361;28;20098;-70
2023/10/31 13:22:41;;;;;;;2.75;0.60;;;;;;;;;;5042694;28;20052;-72
2023/10/31 13:25:10;;;;;;;2.65;0.57;;;11.90;99.90;;;;;;5060100;28;20486;-71
2023/10/31 13:27:37;;;;;;;1.20;0.55;;;;;;;;;;5039952;28;20048;-71
2023/10/31 13:30:04;;;;;;;1.60;0.68;;;;;;;;;;5048457;28;20047;-72
2023/10/31 13:32:29;;;;;;;3.80;0.70;;;12.00;99.90;;;;;;5045812;28;20164;-71
2023/10/31 13:34:55;;;;;;;4.30;0.93;;;;;;;;;;5038930;28;20045;-72
2023/10/31 13:37:21;;;;;;;3.92;0.90;;;;;;;;;;5038962;28;20055;-72
2023/10/31 13:39:47;;;;;;;0.77;0.45;;;;;;;;;;5043547;28;20507;-73
2023/10/31 13:42:16;;;;;;;1.38;0.50;;;;;;;;;;5037919;28;20043;-72
2023/10/31 13:44:42;;;;;;;2.35;0.50;;;;;;;;;;5031037;28;20395;-72
2023/10/31 13:47:09;;;;;;;1.15;0.55;;;;;;;;;;5055685;28;20036;-71
2023/10/31 13:49:35;;;;;;;4.13;0.98;;;11.80;99.90;;;;;;5044370;28;20492;-71
2023/10/31 13:52:01;;;;;;;1.67;0.50;;;;;;;;;;5051949;28;20135;-70
2023/10/31 13:54:27;;;;;;;1.42;0.82;;;;;;;;;;5033455;28;20040;-73
2023/10/31 13:56:54;;;;;;;2.38;0.77;;;;;;;;;;5041652;28;20048;-72